• Join FlightAware (Why Join?)
  • Login
  • US Flag 
Rudolph Flight #1: Arrived! 
10:07PM EST


 

Airport Tracker/Info


-or-


 

Live Flight TrackerFlight Track Log ✈ OPT732 ✈ 08-May-2013 ✈ KPGA - KTEB

Flight Track Log - Related Links

Times and Time Zones

All times are in EDT time to prevent confusion due to time zone crossing. See the OPT732 flight status page for this flight to view local times or setup timezone preferences in your user account.

Time Position Orientation Groundspeed Altitude Reporting Facility
EDT Latitude Longitude Course Direction KTS MPH feet Rate Location/Type
02:59PM 36.8986 -111.3594 81° East 224 258 9,100  Level Denver Center
03:00PM 37.2379 -110.5541 65° Northeast  Level FlightAware Approximate
03:00PM 36.9325 -111.2722 64° Northeast 248 285 11,300  Level Denver Center
03:01PM 37.2915 -110.4068 65° Northeast  Level FlightAware Approximate
03:01PM 36.9636 -111.1650 70° East 311 358 14,500  Level Denver Center
03:02PM 37.3420 -110.2575 67° East  Level FlightAware Approximate
03:02PM 36.9956 -111.0503 71° East 343 395 18,000  Level Denver Center
03:03PM 37.3975 -110.1113 62° Northeast  Level FlightAware Approximate
03:03PM 37.0242 -110.9358 73° East 346 398 21,200  Level Denver Center
03:04PM 37.4508 -109.9636 72° East  Level FlightAware Approximate
03:04PM 37.0625 -110.7947 71° East 359 413 24,000  Level Denver Center
03:05PM 37.0939 -110.6681 73° East 381 438 26,100 2,040 Climbing Denver Center
03:07PM 37.1283 -110.5369 72° East 396 456 28,200 1,980 Climbing Denver Center
03:08PM 37.1631 -110.4008 72° East 410 472 30,300 1,980 Climbing Denver Center
03:09PM 37.1992 -110.2619 72° East 422 486 32,300 1,800 Climbing Denver Center
03:10PM 37.2392 -110.1039 72° East 433 498 34,000 1,320 Climbing Denver Center
03:11PM 37.2756 -109.9589 72° East 453 521 35,100 1,080 Climbing Denver Center
03:12PM 37.3183 -109.7850 73° East 466 536 36,300 1,080 Climbing Denver Center
03:13PM 37.3572 -109.6322 72° East 476 548 37,400 1,020 Climbing Denver Center
03:14PM 37.3947 -109.4775 73° East 480 552 38,400 1,020 Climbing Denver Center
03:15PM 37.4400 -109.2961 72° East 484 557 39,600 1,080 Climbing Denver Center
03:16PM 37.4769 -109.1422 73° East 480 552 40,700 660 Climbing Denver Center
03:17PM 37.5208 -108.9658 73° East 475 547 41,000 120 Climbing Denver Center
03:18PM 37.5589 -108.8058 73° East 492 566 41,000  Level Denver Center
03:19PM 37.6036 -108.6153 73° East 503 579 41,000  Level Denver Center
03:20PM 37.6428 -108.4539 73° East 502 578 41,000  Level Denver Center
03:21PM 37.6811 -108.2903 73° East 504 580 41,000  Level Denver Center
03:22PM 37.7253 -108.0978 74° East 509 586 41,000  Level Denver Center
03:23PM 37.7642 -107.9325 73° East 511 588 41,000  Level Denver Center
03:24PM 37.8086 -107.7386 74° East 512 589 41,000  Level Denver Center
03:25PM 37.8408 -107.6000 74° East 513 590 41,000  Level Denver Center
03:26PM 37.8914 -107.3750 74° East 518 596 41,000  Level Denver Center
03:27PM 37.9289 -107.2056 74° East 521 600 41,000 60 Level Denver Center
03:28PM 37.9694 -107.0283 74° East 521 600 41,200 420 Climbing Denver Center
03:29PM 38.0122 -106.8328 74° East 517 595 41,900 600 Climbing Denver Center
03:30PM 38.0483 -106.6664 75° East 514 592 42,500 600 Climbing Denver Center
03:31PM 38.0872 -106.4917 74° East 504 580 43,200 660 Climbing Denver Center
03:32PM 38.1233 -106.3228 75° East 498 573 43,900 480 Climbing Denver Center
03:33PM 38.1586 -106.1572 75° East 486 559 44,300 480 Climbing Denver Center
03:34PM 38.1994 -105.9711 74° East 488 562 44,900 300 Climbing Denver Center
03:35PM 38.2319 -105.8139 75° East 483 556 45,000  Climbing Denver Center
03:36PM 38.2706 -105.6289 75° East 484 557 45,000  Level Denver Center
03:37PM 38.3042 -105.4678 75° East 489 563 45,000  Level Denver Center
03:38PM 38.3444 -105.2769 75° East 497 572 45,000  Level Denver Center
03:39PM 38.3772 -105.1139 76° East 497 572 45,000  Level Denver Center
03:41PM 38.4097 -104.9506 76° East 496 571 45,000  Level Denver Center
03:42PM 38.4489 -104.7581 75° East 499 574 45,000  Level Denver Center
03:43PM 38.4822 -104.5919 76° East 503 579 45,000  Level Denver Center
03:44PM 38.5431 -104.3806 70° East 496 571 45,000  Level Denver Center
03:45PM 38.6000 -104.2247 65° Northeast 500 575 45,000  Level Denver Center
03:46PM 38.6678 -104.0458 64° Northeast 500 575 45,000  Level Denver Center
03:47PM 38.7244 -103.8906 65° Northeast 501 577 45,000  Level Denver Center
03:48PM 38.7728 -103.7619 64° Northeast 501 577 45,000  Level Denver Center
03:49PM 38.8483 -103.5533 65° Northeast 504 580 45,000  Level Denver Center
03:50PM 38.9153 -103.3725 65° Northeast 503 579 45,000  Level Denver Center
03:51PM 38.9722 -103.2164 65° Northeast 504 580 45,000  Level Denver Center
03:52PM 39.0575 -103.0142 61° Northeast 504 580 45,000  Level Denver Center
03:53PM 39.1133 -102.8597 65° Northeast 497 572 45,000  Level Denver Center
03:54PM 39.1494 -102.6847 75° East 494 568 45,000  Level Denver Center
03:55PM 39.1781 -102.5472 75° East 495 570 45,000  Level Denver Center
03:56PM 39.2244 -102.3294 75° East 494 568 45,000  Level Denver Center
03:57PM 39.2583 -102.1683 75° East 488 562 45,000  Level Denver Center
03:58PM 39.2978 -101.9783 75° East 489 563 45,000  Level Denver Center
03:59PM 39.3314 -101.8217 74° East 484 557 45,000  Level Denver Center
04:00PM 39.3697 -101.6336 75° East 484 557 45,000  Level Denver Center
04:02PM 39.4025 -101.4728 75° East 484 557 45,000  Level Denver Center
04:03PM 39.4411 -101.2833 75° East 487 560 45,000  Level Denver Center
04:04PM 39.4733 -101.1208 76° East 489 563 45,000  Level Denver Center
04:05PM 39.5119 -100.9306 75° East 490 564 45,000  Level Denver Center
04:06PM 39.5444 -100.7689 75° East 488 562 45,000  Level Denver Center
04:07PM 39.5814 -100.5750 76° East 496 571 45,000  Level Denver Center
04:08PM 39.6139 -100.4100 76° East 497 572 45,000  Level Denver Center
04:09PM 39.6506 -100.2164 76° East 496 571 45,000  Level Denver Center
04:10PM 39.6831 -100.0514 76° East 496 571 45,000  Level Denver Center
04:11PM 39.7167 -99.8714 76° East 492 566 45,000  Level Denver Center
04:12PM 39.7497 -99.6961 76° East 498 573 45,000  Level Denver Center
04:13PM 39.7889 -99.4869 76° East 498 573 45,000  Level Denver Center
04:14PM 39.8203 -99.3128 77° East 496 571 45,000  Level Denver Center
04:15PM 39.8453 -99.1731 77° East 497 572 45,000  Level Denver Center
04:16PM 39.8894 -98.9300 77° East 494 568 45,000  Level Denver Center
04:18PM 39.9444 -98.6194 77° East 494 568 45,000  Level Minneapolis Center
04:19PM 39.9747 -98.4461 77° East 493 567 45,000  Level Minneapolis Center
04:20PM 40.0050 -98.2742 77° East 490 564 45,000  Level Minneapolis Center
04:21PM 40.0350 -98.1003 77° East 493 567 45,000  Level Minneapolis Center
04:22PM 40.0703 -97.8917 77° East 493 567 45,000  Level Minneapolis Center
04:23PM 40.1000 -97.7178 77° East 492 566 45,000  Level Minneapolis Center
04:24PM 40.1286 -97.5422 78° East 494 568 45,000  Level Minneapolis Center
04:25PM 40.1578 -97.3675 78° East 494 568 45,000  Level Minneapolis Center
04:26PM 40.1894 -97.1711 78° East 491 565 45,000  Level Minneapolis Center
04:27PM 40.2186 -96.9964 78° East 493 567 45,000  Level Minneapolis Center
04:28PM 40.2469 -96.8217 78° East 493 567 45,000  Level Minneapolis Center
04:29PM 40.2750 -96.6464 78° East 493 567 45,000  Level Minneapolis Center
04:30PM 40.3014 -96.4697 79° East 495 570 45,000  Level Minneapolis Center
04:31PM 40.3292 -96.2933 78° East 496 571 45,000  Level Minneapolis Center
04:32PM 40.3611 -96.0833 79° East 494 568 45,000  Level Minneapolis Center
04:34PM 40.3886 -95.9047 79° East 499 574 45,000  Level Minneapolis Center
04:35PM 40.4079 -95.7391 79° East  Level Estimated
04:36PM 40.4419 -95.5511 79° East 495 570 45,000  Level Minneapolis Center
04:37PM 40.4672 -95.3764 79° East 493 567 45,000  Level Minneapolis Center
04:38PM 40.4989 -95.1644 79° East 494 568 45,000  Level Minneapolis Center
04:39PM 40.5247 -94.9872 79° East 494 568 45,000  Level Minneapolis Center
04:40PM 40.5494 -94.8106 80° East 494 568 45,000  Level Minneapolis Center
04:41PM 40.5736 -94.6344 80° East 492 566 45,000  Level Minneapolis Center
04:42PM 40.5994 -94.4461 80° East 493 567 45,000  Level Minneapolis Center
04:43PM 40.6242 -94.2689 80° East 494 568 45,000  Level Minneapolis Center
04:44PM 40.6478 -94.0928 80° East 494 568 45,000  Level Minneapolis Center
04:45PM 40.6753 -93.8797 80° East 495 570 45,000  Level Minneapolis Center
04:46PM 40.6994 -93.7011 80° East 498 573 45,000  Level Minneapolis Center
04:47PM 40.7219 -93.5236 80° East 495 570 45,000  Level Minneapolis Center
04:48PM 40.7417 -93.3786 80° East 499 574 45,000  Level Minneapolis Center
04:50PM 40.7908 -92.9806 81° East 502 578 45,000  Level Minneapolis Center
04:51PM 40.8181 -92.7633 81° East 501 577 45,000  Level Minneapolis Center
04:51PM 40.8222 -92.7264 82° East 499 574 45,000  Level Chicago Center
04:52PM 40.8436 -92.5450 81° East 500 575 45,000  Level Chicago Center
04:53PM 40.8656 -92.3639 81° East 500 575 45,000  Level Chicago Center
04:54PM 40.8861 -92.1836 81° East 499 574 45,000  Level Chicago Center
04:56PM 40.9117 -91.9667 81° East 500 575 45,000  Level Chicago Center
04:57PM 40.9317 -91.7867 82° East 498 573 45,000  Level Chicago Center
04:58PM 40.9533 -91.6056 81° East 501 577 45,000  Level Chicago Center
04:59PM 40.9725 -91.4256 82° East 498 573 45,000  Level Chicago Center
05:00PM 40.9942 -91.2281 82° East 500 575 45,000  Level Chicago Center
05:01PM 41.0147 -91.0442 82° East 502 578 45,000  Level Chicago Center
05:02PM 41.0328 -90.8611 82° East 501 577 45,000  Level Chicago Center
05:03PM 41.0531 -90.6775 82° East 504 580 45,000  Level Chicago Center
05:04PM 41.0756 -90.4569 82° East 502 578 45,000  Level Chicago Center
05:05PM 41.0939 -90.2728 82° East 502 578 45,000  Level Chicago Center
05:06PM 41.1119 -90.0894 82° East 499 574 45,000  Level Chicago Center
05:07PM 41.1300 -89.9044 83° East 501 577 45,000  Level Chicago Center
05:08PM 41.1483 -89.7189 82° East 502 578 45,000  Level Chicago Center
05:09PM 41.1756 -89.5361 79° East 504 580 45,000  Level Chicago Center
05:10PM 41.2289 -89.3672 67° East 494 568 45,000  Level Chicago Center
05:11PM 41.2856 -89.1806 68° East 495 570 45,000  Level Chicago Center
05:12PM 41.3375 -89.0133 67° East 494 568 45,000  Level Chicago Center
05:13PM 41.3889 -88.8425 68° East 497 572 45,000  Level Chicago Center
05:14PM 41.4508 -88.6375 68° East 501 577 45,000  Level Chicago Center
05:15PM 41.5028 -88.4647 68° East 503 579 45,000  Level Chicago Center
05:16PM 41.5486 -88.2897 71° East 504 580 45,000  Level Chicago Center
05:17PM 41.5725 -88.1022 80° East 504 580 45,000  Level Chicago Center
05:18PM 41.5950 -87.9122 81° East 510 587 45,000  Level Chicago Center
05:19PM 41.6156 -87.7256 82° East 507 583 45,000  Level Chicago Center
05:20PM 41.6369 -87.5400 81° East 506 582 45,000  Level Chicago Center
05:21PM 41.6622 -87.3147 81° East 511 588 45,000  Level Chicago Center
05:22PM 41.6825 -87.1281 82° East 511 588 45,000  Level Chicago Center
05:23PM 41.7031 -86.9439 81° East 505 581 45,000  Level Chicago Center
05:24PM 41.7239 -86.7583 81° East 507 583 45,000  Level Chicago Center
05:26PM 41.7422 -86.5719 82° East 511 588 45,000  Level Chicago Center
05:27PM 41.7608 -86.3861 82° East 507 583 45,000  Level Chicago Center
05:28PM 41.7836 -86.1631 82° East 505 581 45,000  Level Chicago Center
05:29PM 41.8031 -85.9786 82° East 500 575 45,000  Level Chicago Center
05:30PM 41.8219 -85.7936 82° East 499 574 45,000  Level Chicago Center
05:31PM 41.8414 -85.6053 82° East 503 579 45,000  Level Chicago Center
05:32PM 41.8606 -85.4156 82° East 504 580 45,000  Level Chicago Center
05:33PM 41.8783 -85.2275 83° East 502 578 45,000  Level Chicago Center
05:34PM 41.8967 -85.0442 82° East 496 571 45,000  Level Chicago Center
05:35PM 41.9161 -84.8586 82° East 500 575 45,000  Level Chicago Center
05:36PM 41.9375 -84.6389 82° East 494 568 45,000  Level Chicago Center
05:37PM 41.9550 -84.4561 83° East 496 571 45,000  Level Cleveland Center
05:38PM 41.9722 -84.3119 81° East 496 571 45,000  Level Cleveland Center
05:39PM 41.9847 -84.1172 85° East 490 564 45,000  Level Cleveland Center
05:40PM 42.0028 -83.9308 83° East 495 570 45,000  Level Cleveland Center
05:41PM 42.0186 -83.7444 83° East 495 570 45,000  Level Cleveland Center
05:42PM 42.0381 -83.5581 82° East 500 575 45,000  Level Cleveland Center
05:43PM 42.0514 -83.3628 85° East 515 593 45,000  Level Cleveland Center
05:44PM 42.0578 -83.1728 87° East 515 593 45,000  Level Cleveland Center
05:45PM 42.0683 -82.9858 86° East 510 587 45,000  Level Cleveland Center
05:46PM 42.0806 -82.7794 85° East 510 587 45,000  Level Cleveland Center
05:47PM 42.0839 -82.6003 89° East 497 572 45,000  Level Cleveland Center
05:48PM 42.0911 -82.4158 87° East 492 566 45,000  Level Cleveland Center
05:49PM 42.1067 -82.2317 83° East 490 564 45,000  Level Cleveland Center
05:50PM 42.1111 -82.0525 88° East 490 564 45,000  Level Cleveland Center
05:51PM 42.1175 -81.8708 87° East 484 557 45,000  Level Cleveland Center
05:52PM 42.1211 -81.7086 88° East 484 557 45,000  Level Cleveland Center
05:53PM 42.1292 -81.5322 86° East 477 549 45,000  Level Cleveland Center
05:54PM 42.1344 -81.3503 88° East 477 549 45,000  Level Cleveland Center
05:55PM 42.1419 -81.1711 87° East 477 549 45,000  Level Cleveland Center
05:56PM 42.1447 -80.9947 89° East 477 549 45,000  Level Cleveland Center
05:57PM 42.1494 -80.7961 88° East 472 543 45,000  Level Cleveland Center
05:58PM 42.1581 -80.6253 86° East 478 550 45,000  Level Cleveland Center
05:59PM 42.1619 -80.4458 88° East 473 544 45,000  Level Cleveland Center
06:00PM 42.1658 -80.2667 88° East 478 550 45,000  Level Cleveland Center
06:01PM 42.1694 -80.0931 88° East 473 544 45,000  Level Cleveland Center
06:02PM 42.1750 -79.9331 87° East 473 544 45,000  Level Cleveland Center
06:03PM 42.1781 -79.7567 89° East 468 539 45,000 -420 Level Cleveland Center
06:04PM 42.1808 -79.5800 89° East 468 539 44,200 -1,200 Descending Cleveland Center
06:05PM 42.1833 -79.4006 89° East 468 539 42,700 -1,500 Descending Cleveland Center
06:06PM 42.1875 -79.2183 88° East 478 550 41,200 -1,380 Descending Cleveland Center
06:07PM 42.1683 -79.0339 98° East 478 550 40,000 -1,080 Descending Cleveland Center
06:08PM 42.1264 -78.8614 108° East 478 550 39,100 -840 Descending Cleveland Center
06:09PM 42.0822 -78.6975 110° East 478 550 38,400 -1,080 Descending Cleveland Center
06:10PM 42.0397 -78.5283 109° East 473 544 37,000 -1,440 Descending Cleveland Center
06:11PM 41.9947 -78.3619 110° East 473 544 35,600 -1,020 Descending Cleveland Center
06:12PM 41.9542 -78.1986 108° East 467 537 35,000 -300 Descending Cleveland Center
06:13PM 41.9153 -78.0411 108° East 455 524 35,000 -1,200 Level Cleveland Center
06:15PM 41.8422 -77.7678 110° East 433 498 31,800 -2,100 Descending New York Center
06:16PM 41.8061 -77.6358 110° East 406 467 29,300 -1,440 Descending New York Center
06:17PM 41.7739 -77.5072 109° East 377 434 29,000 -180 Descending New York Center
06:18PM 41.7394 -77.3786 110° East 366 421 29,000  Level New York Center
06:19PM 41.7028 -77.2500 111° Southeast 366 421 29,000  Level New York Center
06:20PM 41.6550 -77.1344 119° Southeast 366 421 29,000  Level New York Center
06:21PM 41.6067 -77.0242 120° Southeast 356 410 29,000 -900 Level New York Center
06:22PM 41.5600 -76.9228 122° Southeast 336 387 27,300 -1,920 Descending New York Center
06:23PM 41.5133 -76.8133 120° Southeast 336 387 25,200 -1,680 Descending New York Center
06:24PM 41.4769 -76.7103 115° Southeast 328 377 24,000 -1,800 Descending New York Center
06:25PM 41.4406 -76.6047 115° Southeast 317 365 21,700 -2,340 Descending New York Center
06:26PM 41.4133 -76.5222 114° Southeast 311 358 19,500 -1,860 Descending New York Center
06:27PM 41.3756 -76.4000 112° Southeast 298 343 18,000 -780 Descending New York Center
06:28PM 41.3531 -76.2986 106° East 287 330 18,000  Level New York Center
06:29PM 41.3178 -76.2100 118° Southeast 293 337 18,000  Level New York Center
06:30PM 41.2742 -76.1128 121° Southeast 307 353 18,000  Level New York Center
06:31PM 41.2717 -75.9828 91° East 318 366 18,000 -120 Level New York Center
06:32PM 41.2733 -75.8503 89° East 341 392 17,800 -900 Descending New York Center
06:33PM 41.2725 -75.7233 90° East 341 392 16,300 -1,500 Descending New York Center
06:34PM 41.2478 -75.6111 106° East 331 381 14,800 -1,620 Descending New York Center
06:35PM 41.2089 -75.4925 114° Southeast 314 361 13,100 -1,320 Descending New York Center
06:36PM 41.1733 -75.3881 114° Southeast 309 356 12,300 -1,140 Descending New York Center
06:37PM 41.1397 -75.2919 115° Southeast 296 341 10,900 -1,380 Descending New York Center
06:38PM 41.1117 -75.2075 114° Southeast 283 326 9,600 -1,380 Descending New York Center
06:39PM 41.0797 -75.1119 114° Southeast 288 331 8,200 -1,500 Descending New York Center
06:40PM 41.0458 -75.0161 115° Southeast 277 319 6,600 -1,140 Descending New York Center
06:41PM 41.0153 -74.9317 116° Southeast 259 298 6,000 -1,200 Descending New York Center
06:42PM 40.9869 -74.8503 115° Southeast 259 298 4,200 -1,020 Descending New York Center
06:43PM 40.9547 -74.7603 115° Southeast 259 298 4,100 -480 Descending New York Center
06:44PM 40.9281 -74.6847 115° Southeast 253 291 3,300 -540 Descending New York Center
06:45PM 40.8975 -74.5978 115° Southeast 241 277 3,100 -120 Descending New York Center
06:46PM 40.8708 -74.5222 115° Southeast 236 272 3,100  Level New York Center
06:46PM 40.8667 -74.5000 104° East 233 268 3,100  Level New York TRACON
06:47PM 40.8333 -74.4167 118° Southeast 244 281 3,100  Level New York TRACON
06:48PM 40.8000 -74.3333 118° Southeast 248 285 3,100 -540 Level New York TRACON
06:49PM 40.7667 -74.2833 131° Southeast 198 228 2,100 -660 Descending New York TRACON
06:50PM 40.7667 -74.2167 90° East 186 214 1,800 -180 Descending New York TRACON
06:51PM 40.7833 -74.1500 72° East 186 214 1,800 -360 Level New York TRACON
06:52PM 40.8167 -74.1167 37° Northeast 158 182 1,100 -660 Descending New York TRACON
06:54PM 40.8556 -74.0578 49° Northeast 153 176 200 -600 Descending New York Center
06:56PM 40.8500 -74.0500 North  Level FlightAware Approximate